createdAt,value
2018-06-21T00:01:41.452Z,5.60
2018-06-21T00:04:08.973Z,5.50
2018-06-21T00:06:36.533Z,5.70
2018-06-21T00:09:05.549Z,6.73
2018-06-21T00:11:33.109Z,5.20
2018-06-21T00:14:00.646Z,5.87
2018-06-21T00:16:28.164Z,6.10
2018-06-21T00:18:56.753Z,6.00
2018-06-21T00:21:24.368Z,5.80
2018-06-21T00:23:51.909Z,6.00
2018-06-21T00:26:19.447Z,6.60
2018-06-21T00:28:47.001Z,6.30
2018-06-21T00:31:14.458Z,7.40
2018-06-21T00:33:41.937Z,6.80
2018-06-21T00:36:09.476Z,6.80
2018-06-21T00:38:37.952Z,7.80
2018-06-21T00:41:05.472Z,7.80
2018-06-21T00:43:32.993Z,6.27
2018-06-21T00:46:00.471Z,8.40
2018-06-21T00:48:29.017Z,8.50
2018-06-21T00:50:56.472Z,8.20
2018-06-21T00:53:23.965Z,7.70
2018-06-21T00:55:57.246Z,7.37
2018-06-21T00:58:24.817Z,6.70
2018-06-21T01:00:52.334Z,7.17
2018-06-21T01:03:19.796Z,8.17
2018-06-21T01:05:47.229Z,7.60
2018-06-21T01:08:14.780Z,6.93
2018-06-21T01:10:42.332Z,8.13
2018-06-21T01:13:09.817Z,7.97
2018-06-21T01:15:37.363Z,8.40
2018-06-21T01:18:04.875Z,8.07
2018-06-21T01:20:32.368Z,7.80
2018-06-21T01:22:59.861Z,7.90
2018-06-21T01:25:27.325Z,7.37
2018-06-21T01:27:54.776Z,7.50
2018-06-21T01:30:22.371Z,7.67
2018-06-21T01:32:49.873Z,8.27
2018-06-21T01:35:17.354Z,8.33
2018-06-21T01:37:44.747Z,8.40
2018-06-21T01:40:12.203Z,8.10
2018-06-21T01:42:39.742Z,8.70
2018-06-21T01:45:07.223Z,7.87
2018-06-21T01:47:34.775Z,7.37
2018-06-21T01:50:02.427Z,8.80
2018-06-21T01:52:29.972Z,8.40
2018-06-21T01:54:57.484Z,8.70
2018-06-21T01:57:24.935Z,8.40
2018-06-21T01:59:52.460Z,9.00
2018-06-21T02:02:19.924Z,9.33
2018-06-21T02:04:47.467Z,8.97
2018-06-21T02:07:14.943Z,8.00
2018-06-21T02:09:42.415Z,8.20
2018-06-21T02:12:09.920Z,9.27
2018-06-21T02:14:37.376Z,7.70
2018-06-21T02:17:04.832Z,8.20
2018-06-21T02:19:32.348Z,9.50
2018-06-21T02:21:59.883Z,8.70
2018-06-21T02:24:27.403Z,9.17
2018-06-21T02:26:54.847Z,9.97
2018-06-21T02:29:22.330Z,10.03
2018-06-21T02:31:49.728Z,9.50
2018-06-21T02:34:17.204Z,10.83
2018-06-21T02:36:44.785Z,10.63
2018-06-21T02:39:12.195Z,10.10
2018-06-21T02:41:39.664Z,10.23
2018-06-21T02:44:07.130Z,10.07
2018-06-21T02:46:34.605Z,9.67
2018-06-21T02:49:02.090Z,9.83
2018-06-21T02:51:29.593Z,10.13
2018-06-21T02:53:57.036Z,10.80
2018-06-21T02:56:24.536Z,9.50
2018-06-21T02:58:52.002Z,9.80
2018-06-21T03:01:19.457Z,9.50
2018-06-21T03:03:46.884Z,10.90
2018-06-21T03:06:14.356Z,9.80
2018-06-21T03:08:41.785Z,9.83
2018-06-21T03:11:09.357Z,10.03
2018-06-21T03:13:36.812Z,10.43
2018-06-21T03:16:04.314Z,9.40
2018-06-21T03:18:31.823Z,9.77
2018-06-21T03:20:59.295Z,9.90
2018-06-21T03:23:26.821Z,10.20
2018-06-21T03:25:54.387Z,8.97
2018-06-21T03:28:21.883Z,10.67
2018-06-21T03:30:49.359Z,11.10
2018-06-21T03:33:16.764Z,9.80
2018-06-21T03:35:44.308Z,10.93
2018-06-21T03:38:11.813Z,10.03
2018-06-21T03:40:39.293Z,10.20
2018-06-21T03:43:06.992Z,10.33
2018-06-21T03:45:34.452Z,10.37
2018-06-21T03:48:01.962Z,10.60
2018-06-21T03:50:29.419Z,10.30
2018-06-21T03:52:56.859Z,10.37
2018-06-21T03:55:24.295Z,11.67
2018-06-21T03:57:51.765Z,12.03
2018-06-21T04:00:19.309Z,11.63
2018-06-21T04:02:46.784Z,11.67
2018-06-21T04:05:14.302Z,11.57
2018-06-21T04:07:41.869Z,11.70
2018-06-21T04:10:09.338Z,12.03
2018-06-21T04:12:36.863Z,10.83
2018-06-21T04:15:04.313Z,12.13
2018-06-21T04:17:31.862Z,12.10
2018-06-21T04:19:59.320Z,10.63
2018-06-21T04:22:26.737Z,11.87
2018-06-21T04:24:54.202Z,11.47
2018-06-21T04:27:21.656Z,11.93
2018-06-21T04:29:49.099Z,12.43
2018-06-21T04:32:16.624Z,11.90
2018-06-21T04:34:44.203Z,11.10
2018-06-21T04:37:12.143Z,11.33
2018-06-21T04:39:39.536Z,10.50
2018-06-21T04:42:07.048Z,11.00
2018-06-21T04:44:34.475Z,10.53
2018-06-21T04:47:01.983Z,11.40
2018-06-21T04:49:29.400Z,11.27
2018-06-21T04:51:56.842Z,12.50
2018-06-21T04:54:24.343Z,12.40
2018-06-21T04:56:51.900Z,11.63
2018-06-21T04:59:19.316Z,11.47
2018-06-21T05:01:46.796Z,11.20
2018-06-21T05:04:14.231Z,10.70
2018-06-21T05:06:41.665Z,11.50
2018-06-21T05:09:10.964Z,12.17
2018-06-21T05:11:38.482Z,11.03
2018-06-21T05:14:05.944Z,9.60
2018-06-21T05:16:33.365Z,10.70
2018-06-21T05:19:00.802Z,9.17
2018-06-21T05:21:28.277Z,9.47
2018-06-21T05:23:55.875Z,8.17
2018-06-21T05:26:23.249Z,8.00
2018-06-21T05:28:50.788Z,8.40
2018-06-21T05:31:18.699Z,8.33
2018-06-21T05:33:46.119Z,8.23
2018-06-21T05:36:13.533Z,8.23
2018-06-21T05:38:40.938Z,7.33
2018-06-21T05:41:08.403Z,8.00
2018-06-21T05:43:36.783Z,7.00
2018-06-21T05:46:04.276Z,6.63
2018-06-21T05:48:31.720Z,6.83
2018-06-21T05:50:59.179Z,7.77
2018-06-21T05:53:26.635Z,7.43
2018-06-21T05:55:54.043Z,6.83
2018-06-21T05:58:21.539Z,5.50
2018-06-21T06:00:49.012Z,6.60
2018-06-21T06:03:16.486Z,6.33
2018-06-21T06:05:43.983Z,8.50
2018-06-21T06:08:11.488Z,6.97
2018-06-21T06:10:38.943Z,7.53
2018-06-21T06:13:06.521Z,7.13
2018-06-21T06:15:33.918Z,7.70
2018-06-21T06:18:01.431Z,7.60
2018-06-21T06:20:28.850Z,7.03
2018-06-21T06:22:56.395Z,6.57
2018-06-21T06:25:23.854Z,7.50
2018-06-21T06:27:51.334Z,8.50
2018-06-21T06:30:18.840Z,7.20
2018-06-21T06:32:46.232Z,7.50
2018-06-21T06:35:13.684Z,6.97
2018-06-21T06:37:41.160Z,7.50
2018-06-21T06:40:08.584Z,7.67
2018-06-21T06:42:36.027Z,7.83
2018-06-21T06:45:03.642Z,7.40
2018-06-21T06:47:31.147Z,8.90
2018-06-21T06:49:58.607Z,9.03
2018-06-21T06:52:25.975Z,10.10
2018-06-21T06:54:53.525Z,10.70
2018-06-21T06:57:20.966Z,11.30
2018-06-21T06:59:48.368Z,12.20
2018-06-21T07:02:15.854Z,11.67
2018-06-21T07:04:43.323Z,8.27
2018-06-21T07:07:10.734Z,8.83
2018-06-21T07:09:38.159Z,8.60
2018-06-21T07:12:05.559Z,6.03
2018-06-21T07:14:33.017Z,5.00
2018-06-21T07:17:00.503Z,3.87
2018-06-21T07:19:27.955Z,3.37
2018-06-21T07:21:55.351Z,2.40
2018-06-21T07:24:22.785Z,2.77
2018-06-21T07:26:50.170Z,1.90
2018-06-21T07:29:17.547Z,1.80
2018-06-21T07:31:45.024Z,1.73
2018-06-21T07:34:12.386Z,1.93
2018-06-21T07:36:39.859Z,2.40
2018-06-21T07:39:07.727Z,2.47
2018-06-21T07:41:35.118Z,2.67
2018-06-21T07:44:02.523Z,3.20
2018-06-21T07:46:30.322Z,3.40
2018-06-21T07:48:57.787Z,3.20
2018-06-21T07:51:25.199Z,3.00
2018-06-21T07:53:52.628Z,3.40
2018-06-21T07:56:20.083Z,2.63
2018-06-21T07:58:48.431Z,3.70
2018-06-21T08:01:24.062Z,3.60
2018-06-21T08:03:51.473Z,3.70
2018-06-21T08:06:18.851Z,3.13
2018-06-21T08:08:47.307Z,3.53
2018-06-21T08:11:14.686Z,3.60
2018-06-21T08:13:42.072Z,3.53
2018-06-21T08:16:09.415Z,3.10
2018-06-21T08:18:37.050Z,2.87
2018-06-21T08:21:04.646Z,3.50
2018-06-21T08:23:32.038Z,3.90
2018-06-21T08:25:59.438Z,3.67
2018-06-21T08:28:26.911Z,3.70
2018-06-21T08:30:54.395Z,4.00
2018-06-21T08:33:21.834Z,4.20
2018-06-21T08:35:49.182Z,4.23
2018-06-21T08:38:16.562Z,4.23
2018-06-21T08:40:43.967Z,4.33
2018-06-21T08:43:11.447Z,4.20
2018-06-21T08:45:38.870Z,4.70
2018-06-21T08:48:06.267Z,4.57
2018-06-21T08:50:33.692Z,4.90
2018-06-21T08:53:01.087Z,4.83
2018-06-21T08:55:28.548Z,4.70
2018-06-21T08:57:55.910Z,4.87
2018-06-21T09:00:23.271Z,5.50
2018-06-21T09:02:50.619Z,5.53
2018-06-21T09:05:17.999Z,5.67
2018-06-21T09:07:45.424Z,5.90
2018-06-21T09:10:12.901Z,5.97
2018-06-21T09:12:40.249Z,6.80
2018-06-21T09:15:08.643Z,7.27
2018-06-21T09:17:36.094Z,7.27
2018-06-21T09:20:03.670Z,6.60
2018-06-21T09:22:31.604Z,6.90
2018-06-21T09:24:59.497Z,6.47
2018-06-21T09:27:26.968Z,7.07
2018-06-21T09:29:54.703Z,8.20
2018-06-21T09:32:22.142Z,9.60
2018-06-21T09:34:49.594Z,9.90
2018-06-21T09:37:21.608Z,11.50
2018-06-21T09:39:54.728Z,12.07
2018-06-21T09:42:28.033Z,11.73
2018-06-21T09:44:57.212Z,11.03
2018-06-21T09:47:30.514Z,7.60
2018-06-21T09:49:58.091Z,8.10
2018-06-21T09:52:25.597Z,7.87
2018-06-21T09:54:53.071Z,6.90
2018-06-21T09:57:20.514Z,6.30
2018-06-21T09:59:47.994Z,3.80
2018-06-21T10:02:15.431Z,3.07
2018-06-21T10:04:42.858Z,3.77
2018-06-21T10:07:10.320Z,3.43
2018-06-21T10:09:37.707Z,3.70
2018-06-21T10:12:05.535Z,3.37
2018-06-21T10:14:33.067Z,3.50
2018-06-21T10:17:00.443Z,3.47
2018-06-21T10:19:27.915Z,3.10
2018-06-21T10:21:55.278Z,3.00
2018-06-21T10:24:22.653Z,3.30
2018-06-21T10:26:50.042Z,3.37
2018-06-21T10:29:17.494Z,2.80
2018-06-21T10:31:44.862Z,3.07
2018-06-21T10:34:12.382Z,3.47
2018-06-21T10:36:39.949Z,2.80
2018-06-21T10:39:08.279Z,3.47
2018-06-21T10:41:35.683Z,3.07
2018-06-21T10:44:03.158Z,2.80
2018-06-21T10:46:30.615Z,3.20
2018-06-21T10:48:59.204Z,3.07
2018-06-21T10:51:26.699Z,2.70
2018-06-21T10:53:54.162Z,3.10
2018-06-21T10:56:21.619Z,3.20
2018-06-21T10:58:49.054Z,3.00
2018-06-21T11:01:16.551Z,2.97
2018-06-21T11:03:44.164Z,2.40
2018-06-21T11:06:11.673Z,2.17
2018-06-21T11:08:39.117Z,2.50
2018-06-21T11:11:06.598Z,2.23
2018-06-21T11:13:34.005Z,1.70
2018-06-21T11:16:01.527Z,1.97
2018-06-21T11:18:30.136Z,2.20
2018-06-21T11:20:57.526Z,2.03
2018-06-21T11:23:24.905Z,2.33
2018-06-21T11:25:52.294Z,2.60
2018-06-21T11:28:19.791Z,2.47
2018-06-21T11:30:47.455Z,2.33
2018-06-21T11:33:14.922Z,3.27
2018-06-21T11:35:42.412Z,3.43
2018-06-21T11:38:09.835Z,2.47
2018-06-21T11:40:37.263Z,2.93
2018-06-21T11:43:04.655Z,3.03
2018-06-21T11:45:32.026Z,3.23
2018-06-21T11:47:59.499Z,3.17
2018-06-21T11:50:26.855Z,3.37
2018-06-21T11:52:54.204Z,3.60
2018-06-21T11:55:21.626Z,2.60
2018-06-21T11:57:48.970Z,3.10
2018-06-21T12:00:16.418Z,2.77
2018-06-21T12:02:43.814Z,2.40
2018-06-21T12:05:11.291Z,2.10
2018-06-21T12:07:38.730Z,3.03
2018-06-21T12:10:06.184Z,2.20
2018-06-21T12:12:33.656Z,1.87
2018-06-21T12:15:01.142Z,2.60
2018-06-21T12:17:28.538Z,2.33
2018-06-21T12:19:56.171Z,2.43
2018-06-21T12:22:23.555Z,2.43
2018-06-21T12:24:50.966Z,2.63
2018-06-21T12:27:18.439Z,2.10
2018-06-21T12:29:46.038Z,2.33
2018-06-21T12:32:13.499Z,3.03
2018-06-21T12:34:41.288Z,2.87
2018-06-21T12:37:09.197Z,3.80
2018-06-21T12:39:37.164Z,3.50
2018-06-21T12:42:04.594Z,3.60
2018-06-21T12:44:32.039Z,3.30
2018-06-21T12:46:59.476Z,4.07
2018-06-21T12:49:26.851Z,3.60
2018-06-21T12:51:54.223Z,3.40
2018-06-21T12:54:21.687Z,2.23
2018-06-21T12:56:49.200Z,2.13
2018-06-21T12:59:16.642Z,2.30
2018-06-21T13:01:44.002Z,1.60
2018-06-21T13:04:11.407Z,2.07
2018-06-21T13:06:38.851Z,2.10
2018-06-21T13:09:11.962Z,1.83
2018-06-21T13:12:47.051Z,2.43
2018-06-21T13:15:14.516Z,2.20
2018-06-21T13:17:41.943Z,1.77
2018-06-21T13:20:09.339Z,2.13
2018-06-21T13:22:36.783Z,2.73
2018-06-21T13:25:04.344Z,2.00
2018-06-21T13:27:31.722Z,2.30
2018-06-21T13:29:59.217Z,2.00
2018-06-21T13:32:26.671Z,1.27
2018-06-21T13:34:54.135Z,1.70
2018-06-21T13:37:21.603Z,2.07
2018-06-21T13:39:49.005Z,1.57
2018-06-21T13:42:16.504Z,1.77
2018-06-21T13:44:43.955Z,1.60
2018-06-21T13:47:11.536Z,1.70
2018-06-21T13:49:39.113Z,2.73
2018-06-21T13:52:06.677Z,1.10
2018-06-21T13:54:34.199Z,1.23
2018-06-21T13:57:01.570Z,1.07
2018-06-21T13:59:28.964Z,1.57
2018-06-21T14:01:56.431Z,1.20
2018-06-21T14:04:23.863Z,1.10
2018-06-21T14:06:51.250Z,1.20
2018-06-21T14:09:18.708Z,1.10
2018-06-21T14:11:46.110Z,1.20
2018-06-21T14:14:13.555Z,1.20
2018-06-21T14:16:40.911Z,1.10
2018-06-21T14:19:08.329Z,1.03
2018-06-21T14:21:35.744Z,1.37
2018-06-21T14:24:07.434Z,1.03
2018-06-21T14:26:35.235Z,1.07
2018-06-21T14:29:02.682Z,1.60
2018-06-21T14:31:30.167Z,1.40
2018-06-21T14:33:57.631Z,1.67
2018-06-21T14:36:25.135Z,1.17
2018-06-21T14:38:52.658Z,1.00
2018-06-21T14:41:20.321Z,1.20
2018-06-21T14:43:47.810Z,1.20
2018-06-21T14:46:15.322Z,1.50
2018-06-21T14:48:42.779Z,1.20
2018-06-21T14:51:10.222Z,1.37
2018-06-21T14:53:37.815Z,1.53
2018-06-21T14:56:05.205Z,1.17
2018-06-21T14:58:33.739Z,1.17
2018-06-21T15:01:01.196Z,1.17
2018-06-21T15:03:28.690Z,1.37
2018-06-21T15:05:56.202Z,1.53
2018-06-21T15:08:23.603Z,1.60
2018-06-21T15:10:51.062Z,1.53
2018-06-21T15:13:18.595Z,2.27
2018-06-21T15:15:46.079Z,1.83
2018-06-21T15:18:13.551Z,1.90
2018-06-21T15:20:41.011Z,1.43
2018-06-21T15:23:08.518Z,1.30
2018-06-21T15:25:35.918Z,1.60
2018-06-21T15:28:03.359Z,2.23
2018-06-21T15:30:30.842Z,1.77
2018-06-21T15:32:58.352Z,2.40
2018-06-21T15:35:25.781Z,1.83
2018-06-21T15:37:53.204Z,1.60
2018-06-21T15:40:20.622Z,2.13
2018-06-21T15:42:47.978Z,1.90
2018-06-21T15:45:15.474Z,1.90
2018-06-21T15:47:42.939Z,1.80
2018-06-21T15:50:10.399Z,2.00
2018-06-21T15:52:37.812Z,1.57
2018-06-21T15:55:05.675Z,1.47
2018-06-21T15:57:33.151Z,1.40
2018-06-21T16:00:00.553Z,2.00
2018-06-21T16:02:28.021Z,1.40
2018-06-21T16:04:55.410Z,1.70
2018-06-21T16:07:22.884Z,1.73
2018-06-21T16:09:50.419Z,1.30
2018-06-21T16:12:17.850Z,1.27
2018-06-21T16:14:45.378Z,1.00
2018-06-21T16:17:12.843Z,1.07
2018-06-21T16:19:40.259Z,1.00
2018-06-21T16:22:07.714Z,1.00
2018-06-21T16:24:35.067Z,1.13
2018-06-21T16:27:02.642Z,1.00
2018-06-21T16:29:30.051Z,1.30
2018-06-21T16:31:57.482Z,1.17
2018-06-21T16:34:25.015Z,0.97
2018-06-21T16:36:52.439Z,1.10
2018-06-21T16:39:19.811Z,1.10
2018-06-21T16:41:47.368Z,0.93
2018-06-21T16:44:14.731Z,1.30
2018-06-21T16:46:42.122Z,1.37
2018-06-21T16:49:09.630Z,1.30
2018-06-21T16:51:37.169Z,1.50
2018-06-21T16:54:04.715Z,1.13
2018-06-21T16:56:32.113Z,1.50
2018-06-21T16:58:59.560Z,1.37
2018-06-21T17:01:26.903Z,1.50
2018-06-21T17:03:54.607Z,1.40
2018-06-21T17:06:21.950Z,1.40
2018-06-21T17:08:50.374Z,1.30
2018-06-21T17:11:17.846Z,1.10
2018-06-21T17:13:45.299Z,1.20
2018-06-21T17:16:12.742Z,1.30
2018-06-21T17:18:40.192Z,1.10
2018-06-21T17:21:07.635Z,1.40
2018-06-21T17:23:35.039Z,1.10
2018-06-21T17:26:02.558Z,1.40
2018-06-21T17:28:29.923Z,1.50
2018-06-21T17:30:57.446Z,1.50
2018-06-21T17:33:25.797Z,1.33
2018-06-21T17:35:53.927Z,1.60
2018-06-21T17:38:21.539Z,1.50
2018-06-21T17:40:51.325Z,1.37
2018-06-21T17:43:20.374Z,1.50
2018-06-21T17:45:48.649Z,2.40
2018-06-21T17:48:16.692Z,1.50
2018-06-21T17:50:44.524Z,1.30
2018-06-21T17:53:12.669Z,1.50
2018-06-21T17:55:40.678Z,1.43
2018-06-21T17:58:09.079Z,1.40
2018-06-21T18:00:37.321Z,1.60
2018-06-21T18:03:05.243Z,1.47
2018-06-21T18:05:33.698Z,1.20
2018-06-21T18:08:02.106Z,1.20
2018-06-21T18:10:31.817Z,1.40
2018-06-21T18:12:59.358Z,1.50
2018-06-21T18:15:26.916Z,1.57
2018-06-21T18:17:54.443Z,1.30
2018-06-21T18:20:21.928Z,1.30
2018-06-21T18:22:49.346Z,1.90
2018-06-21T18:25:16.791Z,1.40
2018-06-21T18:27:44.274Z,1.17
2018-06-21T18:30:11.720Z,1.30
2018-06-21T18:32:39.263Z,1.27
2018-06-21T18:35:06.639Z,1.30
2018-06-21T18:37:35.008Z,1.10
2018-06-21T18:40:02.475Z,1.10
2018-06-21T18:42:29.921Z,1.30
2018-06-21T18:44:57.284Z,1.00
2018-06-21T18:47:24.755Z,1.07
2018-06-21T18:49:52.196Z,1.40
2018-06-21T18:52:19.942Z,1.70
2018-06-21T18:54:47.529Z,1.43
2018-06-21T18:57:14.989Z,1.43
2018-06-21T18:59:42.427Z,1.30
2018-06-21T19:02:09.780Z,1.33
2018-06-21T19:04:37.162Z,1.83
2018-06-21T19:07:10.420Z,1.23
2018-06-21T19:09:43.659Z,1.67
2018-06-21T19:12:42.351Z,1.40
2018-06-21T19:15:09.770Z,1.57
2018-06-21T19:17:37.319Z,2.83
2018-06-21T19:20:04.697Z,1.27
2018-06-21T19:22:32.192Z,1.40
2018-06-21T19:24:59.602Z,1.60
2018-06-21T19:27:27.059Z,1.50
2018-06-21T19:29:54.514Z,1.30
2018-06-21T19:32:22.036Z,1.40
2018-06-21T19:34:49.458Z,1.63
2018-06-21T19:37:16.899Z,1.50
2018-06-21T19:39:44.357Z,1.57
2018-06-21T19:42:11.800Z,1.80
2018-06-21T19:44:39.256Z,1.70
2018-06-21T19:47:06.723Z,1.73
2018-06-21T19:49:34.180Z,1.90
2018-06-21T19:52:01.623Z,2.20
2018-06-21T19:54:29.102Z,1.67
2018-06-21T19:56:56.575Z,1.47
2018-06-21T19:59:24.013Z,1.80
2018-06-21T20:01:51.495Z,1.97
2018-06-21T20:04:18.914Z,1.60
2018-06-21T20:06:46.399Z,1.43
2018-06-21T20:09:13.843Z,2.10
2018-06-21T20:11:41.267Z,2.37
2018-06-21T20:14:08.622Z,1.60
2018-06-21T20:16:35.978Z,1.70
2018-06-21T20:19:10.024Z,2.00
2018-06-21T20:21:37.462Z,1.77
2018-06-21T20:24:04.918Z,1.67
2018-06-21T20:26:32.376Z,1.77
2018-06-21T20:28:59.830Z,1.43
2018-06-21T20:31:27.285Z,1.43
2018-06-21T20:33:54.754Z,2.00
2018-06-21T20:36:25.603Z,1.63
2018-06-21T20:38:53.954Z,1.60
2018-06-21T20:41:21.723Z,1.63
2018-06-21T20:43:49.290Z,1.70
2018-06-21T20:46:16.737Z,1.80
2018-06-21T20:48:44.568Z,1.83
2018-06-21T20:51:12.256Z,1.77
2018-06-21T20:53:39.602Z,1.70
2018-06-21T20:56:06.957Z,1.57
2018-06-21T20:58:35.347Z,2.47
2018-06-21T21:01:02.716Z,1.67
2018-06-21T21:03:30.137Z,2.13
2018-06-21T21:05:57.500Z,1.77
2018-06-21T21:08:25.171Z,1.43
2018-06-21T21:10:52.533Z,1.80
2018-06-21T21:13:19.906Z,1.93
2018-06-21T21:15:47.313Z,2.10
2018-06-21T21:18:14.743Z,1.90
2018-06-21T21:20:42.087Z,1.63
2018-06-21T21:23:09.509Z,1.87
2018-06-21T21:25:36.834Z,1.80
2018-06-21T21:28:04.283Z,1.60
2018-06-21T21:30:31.691Z,1.93
2018-06-21T21:33:00.087Z,1.67
2018-06-21T21:35:27.426Z,2.27
2018-06-21T21:37:54.759Z,1.80
2018-06-21T21:40:22.187Z,2.43
2018-06-21T21:42:49.517Z,2.43
2018-06-21T21:45:16.919Z,2.20
2018-06-21T21:47:44.287Z,1.53
2018-06-21T21:50:11.660Z,2.10
2018-06-21T21:52:38.999Z,3.90
2018-06-21T21:55:06.359Z,2.30
2018-06-21T21:57:33.788Z,1.90
2018-06-21T22:00:01.135Z,1.70
2018-06-21T22:02:28.516Z,1.93
2018-06-21T22:04:56.038Z,1.70
2018-06-21T22:07:23.456Z,1.43
2018-06-21T22:09:50.847Z,1.90
2018-06-21T22:12:18.271Z,2.10
2018-06-21T22:14:45.654Z,2.13
2018-06-21T22:17:12.987Z,1.50
2018-06-21T22:21:10.081Z,1.83
2018-06-21T22:23:37.463Z,1.73
2018-06-21T22:26:04.805Z,1.57
2018-06-21T22:28:32.247Z,1.93
2018-06-21T22:30:59.644Z,1.93
2018-06-21T22:36:09.578Z,2.20
2018-06-21T22:38:37.009Z,1.90
2018-06-21T22:41:04.374Z,2.13
2018-06-21T22:43:31.739Z,2.40
2018-06-21T22:45:59.226Z,2.87
2018-06-21T22:48:26.571Z,2.13
2018-06-21T22:50:53.955Z,2.00
2018-06-21T22:53:21.336Z,2.03
2018-06-21T22:55:48.678Z,2.27
2018-06-21T22:58:16.075Z,2.27
2018-06-21T23:00:43.807Z,2.40
2018-06-21T23:03:11.205Z,2.10
2018-06-21T23:05:38.571Z,2.70
2018-06-21T23:08:05.947Z,3.30
2018-06-21T23:10:33.270Z,2.53
2018-06-21T23:13:00.621Z,1.83
2018-06-21T23:15:28.035Z,2.03
2018-06-21T23:17:55.355Z,2.47
2018-06-21T23:20:22.758Z,2.60
2018-06-21T23:22:50.114Z,2.53
2018-06-21T23:25:17.507Z,2.30
2018-06-21T23:27:44.875Z,2.10
2018-06-21T23:30:12.235Z,2.03
2018-06-21T23:32:39.640Z,1.90
2018-06-21T23:35:07.074Z,1.87
2018-06-21T23:37:34.462Z,1.93
2018-06-21T23:40:01.799Z,2.47
2018-06-21T23:42:29.178Z,2.30
2018-06-21T23:44:56.535Z,2.53
2018-06-21T23:47:24.056Z,2.13
2018-06-21T23:49:51.476Z,1.80
2018-06-21T23:52:18.847Z,1.97
2018-06-21T23:54:46.215Z,2.23
2018-06-21T23:57:13.591Z,2.30
2018-06-21T23:59:40.959Z,2.60
